createdAt,value
2022-07-28T00:01:25.250Z,99.90
2022-07-28T00:03:52.013Z,99.90
2022-07-28T00:06:18.657Z,99.90
2022-07-28T00:08:45.418Z,99.90
2022-07-28T00:11:12.227Z,99.90
2022-07-28T00:13:38.948Z,99.90
2022-07-28T00:16:07.117Z,99.90
2022-07-28T00:18:33.967Z,99.90
2022-07-28T00:21:01.500Z,99.90
2022-07-28T00:23:38.603Z,99.90
2022-07-28T00:26:06.514Z,99.90
2022-07-28T00:28:33.175Z,99.90
2022-07-28T00:31:05.535Z,99.90
2022-07-28T00:33:32.916Z,99.90
2022-07-28T00:35:59.557Z,99.90
2022-07-28T00:38:26.486Z,99.90
2022-07-28T00:41:11.495Z,99.90
2022-07-28T00:43:42.775Z,99.90
2022-07-28T00:46:10.365Z,99.90
2022-07-28T00:48:43.360Z,99.90
2022-07-28T00:51:10.726Z,99.90
2022-07-28T00:53:38.582Z,99.90
2022-07-28T00:56:06.949Z,99.90
2022-07-28T00:58:34.546Z,99.90
2022-07-28T01:01:01.203Z,99.90
2022-07-28T01:03:29.062Z,99.90
2022-07-28T01:06:16.478Z,99.90
2022-07-28T01:08:52.016Z,99.90
2022-07-28T01:11:46.832Z,99.90
2022-07-28T01:14:47.734Z,99.90
2022-07-28T01:17:19.751Z,99.90
2022-07-28T01:20:00.191Z,99.90
2022-07-28T01:22:31.305Z,99.90
2022-07-28T01:25:16.874Z,99.90
2022-07-28T01:28:08.372Z,99.90
2022-07-28T01:30:47.508Z,99.90
2022-07-28T01:33:21.729Z,99.90
2022-07-28T01:35:56.326Z,99.90
2022-07-28T01:38:24.813Z,99.90
2022-07-28T01:40:54.396Z,99.90
2022-07-28T01:43:24.825Z,99.90
2022-07-28T01:45:54.798Z,99.90
2022-07-28T01:48:24.425Z,99.90
2022-07-28T01:50:53.119Z,99.90
2022-07-28T01:53:21.384Z,99.90
2022-07-28T01:55:50.045Z,99.90
2022-07-28T01:58:20.147Z,99.90
2022-07-28T02:00:50.176Z,99.90
2022-07-28T02:03:23.549Z,99.90
2022-07-28T02:05:52.571Z,99.90
2022-07-28T02:08:21.824Z,99.90
2022-07-28T02:11:10.408Z,99.90
2022-07-28T02:13:38.244Z,99.90
2022-07-28T02:16:08.028Z,99.90
2022-07-28T02:18:37.287Z,99.90
2022-07-28T02:21:05.125Z,99.90
2022-07-28T02:23:33.984Z,99.90
2022-07-28T02:26:04.325Z,99.90
2022-07-28T02:28:31.332Z,99.90
2022-07-28T02:31:06.471Z,99.90
2022-07-28T02:33:59.825Z,99.90
2022-07-28T02:36:28.327Z,99.90
2022-07-28T02:39:00.032Z,99.90
2022-07-28T02:41:29.238Z,99.90
2022-07-28T02:44:01.046Z,99.90
2022-07-28T02:46:38.222Z,99.90
2022-07-28T02:49:13.810Z,99.90
2022-07-28T02:51:42.879Z,99.90
2022-07-28T02:54:12.357Z,99.90
2022-07-28T02:56:41.530Z,99.90
2022-07-28T02:59:21.249Z,99.90
2022-07-28T03:01:49.537Z,99.90
2022-07-28T03:04:37.415Z,99.90
2022-07-28T03:07:07.802Z,99.90
2022-07-28T03:09:42.134Z,99.90
2022-07-28T03:12:10.118Z,99.90
2022-07-28T03:14:36.923Z,99.90
2022-07-28T03:17:03.849Z,99.90
2022-07-28T03:19:30.680Z,99.90
2022-07-28T03:21:57.516Z,99.90
2022-07-28T03:24:26.973Z,99.90
2022-07-28T03:27:00.657Z,99.90
2022-07-28T03:29:31.101Z,99.90
2022-07-28T03:31:59.563Z,99.90
2022-07-28T03:34:27.498Z,99.90
2022-07-28T03:37:11.900Z,99.90
2022-07-28T03:39:46.796Z,99.90
2022-07-28T03:42:16.741Z,99.90
2022-07-28T03:44:44.027Z,99.90
2022-07-28T03:47:10.791Z,99.90
2022-07-28T03:49:38.552Z,99.90
2022-07-28T03:52:05.678Z,99.90
2022-07-28T03:54:32.384Z,99.90
2022-07-28T03:56:59.091Z,99.90
2022-07-28T03:59:25.802Z,99.90
2022-07-28T04:01:56.096Z,99.90
2022-07-28T04:04:23.699Z,99.90
2022-07-28T04:06:50.732Z,99.90
2022-07-28T04:09:17.839Z,99.90
2022-07-28T04:11:44.679Z,99.90
2022-07-28T04:14:16.509Z,99.90
2022-07-28T04:16:44.041Z,99.90
2022-07-28T04:19:10.671Z,99.90
2022-07-28T04:21:37.315Z,99.90
2022-07-28T04:24:04.415Z,99.90
2022-07-28T04:26:31.077Z,99.90
2022-07-28T04:28:57.698Z,99.90
2022-07-28T04:31:24.360Z,99.90
2022-07-28T04:33:51.161Z,99.90
2022-07-28T04:36:17.903Z,99.90
2022-07-28T04:38:44.643Z,99.90
2022-07-28T04:41:11.350Z,99.90
2022-07-28T04:43:38.641Z,99.90
2022-07-28T04:46:05.411Z,99.90
2022-07-28T04:48:32.346Z,99.90
2022-07-28T04:50:59.055Z,99.90
2022-07-28T04:53:25.717Z,99.90
2022-07-28T04:55:53.626Z,99.90
2022-07-28T04:58:22.687Z,99.90
2022-07-28T05:00:50.661Z,99.90
2022-07-28T05:03:18.646Z,99.90
2022-07-28T05:05:47.474Z,99.90
2022-07-28T05:08:20.947Z,99.90
2022-07-28T05:10:48.617Z,99.90
2022-07-28T05:13:15.246Z,99.90
2022-07-28T05:15:41.922Z,99.90
2022-07-28T05:18:08.608Z,99.90
2022-07-28T05:20:35.450Z,99.90
2022-07-28T05:23:03.987Z,99.90
2022-07-28T05:25:30.647Z,99.90
2022-07-28T05:27:57.488Z,99.90
2022-07-28T05:30:24.244Z,99.90
2022-07-28T05:32:51.059Z,99.90
2022-07-28T05:35:17.770Z,99.90
2022-07-28T05:37:44.540Z,99.90
2022-07-28T05:40:13.881Z,99.90
2022-07-28T05:42:42.251Z,99.90
2022-07-28T05:45:15.678Z,99.90
2022-07-28T05:47:53.406Z,99.90
2022-07-28T05:50:25.947Z,99.90
2022-07-28T05:52:52.615Z,99.90
2022-07-28T05:55:20.842Z,99.90
2022-07-28T05:57:47.575Z,99.90
2022-07-28T06:00:18.008Z,99.90
2022-07-28T06:02:49.064Z,99.90
2022-07-28T06:05:17.353Z,99.90
2022-07-28T06:07:45.132Z,99.90
2022-07-28T06:10:13.776Z,99.90
2022-07-28T06:12:45.835Z,99.90
2022-07-28T06:15:25.539Z,99.90
2022-07-28T06:17:55.105Z,99.90
2022-07-28T06:20:23.642Z,99.90
2022-07-28T06:22:52.444Z,99.90
2022-07-28T06:25:24.456Z,99.90
2022-07-28T06:27:54.086Z,99.90
2022-07-28T06:30:21.347Z,99.90
2022-07-28T06:32:48.800Z,99.90
2022-07-28T06:35:16.813Z,99.90
2022-07-28T06:37:44.894Z,99.90
2022-07-28T06:40:12.404Z,99.90
2022-07-28T06:42:39.964Z,99.90
2022-07-28T06:45:07.729Z,99.90
2022-07-28T06:47:34.539Z,99.90
2022-07-28T06:50:01.831Z,99.90
2022-07-28T06:52:29.258Z,99.90
2022-07-28T06:54:57.424Z,99.90
2022-07-28T06:57:33.413Z,99.90
2022-07-28T07:00:06.093Z,99.90
2022-07-28T07:02:33.765Z,99.90
2022-07-28T07:05:00.450Z,99.90
2022-07-28T07:07:27.254Z,99.90
2022-07-28T07:09:53.926Z,99.90
2022-07-28T07:12:20.672Z,99.90
2022-07-28T07:14:47.914Z,99.90
2022-07-28T07:17:14.795Z,99.90
2022-07-28T07:19:41.481Z,99.90
2022-07-28T07:22:08.498Z,99.90
2022-07-28T07:24:35.477Z,99.90
2022-07-28T07:27:02.523Z,99.90
2022-07-28T07:29:30.388Z,99.90
2022-07-28T07:31:58.485Z,99.90
2022-07-28T07:34:25.300Z,99.90
2022-07-28T07:36:52.018Z,99.90
2022-07-28T07:39:18.659Z,99.90
2022-07-28T07:41:45.334Z,99.90
2022-07-28T07:44:12.906Z,99.90
2022-07-28T07:46:39.874Z,99.90
2022-07-28T07:49:06.725Z,99.90
2022-07-28T07:51:34.327Z,99.90
2022-07-28T07:54:00.990Z,99.90
2022-07-28T07:56:27.658Z,99.90
2022-07-28T07:58:56.997Z,99.90
2022-07-28T08:01:24.151Z,99.90
2022-07-28T08:03:51.425Z,99.90
2022-07-28T08:06:26.665Z,99.90
2022-07-28T08:08:54.780Z,99.90
2022-07-28T08:11:21.554Z,99.90
2022-07-28T08:13:48.585Z,99.90
2022-07-28T08:16:15.478Z,99.90
2022-07-28T08:18:42.587Z,99.90
2022-07-28T08:21:09.337Z,99.90
2022-07-28T08:23:36.016Z,99.90
2022-07-28T08:26:04.100Z,99.90
2022-07-28T08:28:30.764Z,99.90
2022-07-28T08:30:58.023Z,99.90
2022-07-28T08:33:24.790Z,99.90
2022-07-28T08:35:51.467Z,99.90
2022-07-28T08:38:18.396Z,99.90
2022-07-28T08:40:49.658Z,99.90
2022-07-28T08:43:24.119Z,99.90
2022-07-28T08:45:57.815Z,99.90
2022-07-28T08:48:30.466Z,99.90
2022-07-28T08:51:01.655Z,99.90
2022-07-28T08:53:34.235Z,99.90
2022-07-28T08:56:17.228Z,99.90
2022-07-28T08:58:44.140Z,99.90
2022-07-28T09:01:11.519Z,99.90
2022-07-28T09:03:39.349Z,99.90
2022-07-28T09:06:06.381Z,99.90
2022-07-28T09:08:33.394Z,99.90
2022-07-28T09:11:00.118Z,99.90
2022-07-28T09:13:26.828Z,99.90
2022-07-28T09:15:53.715Z,99.90
2022-07-28T09:18:21.504Z,99.30
2022-07-28T09:20:48.246Z,99.60
2022-07-28T09:23:41.854Z,99.20
2022-07-28T09:26:12.795Z,98.70
2022-07-28T09:28:54.348Z,99.00
2022-07-28T09:31:23.394Z,99.20
2022-07-28T09:34:00.725Z,98.50
2022-07-28T09:36:29.134Z,99.10
2022-07-28T09:38:56.777Z,98.50
2022-07-28T09:41:23.874Z,99.90
2022-07-28T09:43:55.182Z,98.90
2022-07-28T09:46:25.338Z,98.90
2022-07-28T09:48:59.336Z,98.80
2022-07-28T09:51:31.425Z,98.10
2022-07-28T09:54:16.196Z,98.00
2022-07-28T09:56:45.231Z,97.50
2022-07-28T09:59:14.997Z,98.20
2022-07-28T10:02:00.939Z,98.30
2022-07-28T10:04:37.410Z,98.80
2022-07-28T10:07:09.986Z,97.20
2022-07-28T10:09:38.110Z,97.10
2022-07-28T10:12:22.607Z,97.60
2022-07-28T10:14:51.658Z,96.90
2022-07-28T10:17:32.473Z,97.40
2022-07-28T10:20:01.589Z,98.10
2022-07-28T10:22:33.697Z,97.50
2022-07-28T10:25:15.320Z,98.60
2022-07-28T10:27:47.079Z,97.10
2022-07-28T10:30:14.884Z,97.40
2022-07-28T10:32:45.859Z,96.60
2022-07-28T10:35:14.550Z,96.20
2022-07-28T10:37:44.035Z,96.90
2022-07-28T10:40:12.549Z,96.40
2022-07-28T10:42:41.296Z,95.70
2022-07-28T10:45:11.402Z,96.00
2022-07-28T10:47:38.103Z,96.40
2022-07-28T10:50:05.308Z,96.60
2022-07-28T10:52:50.523Z,96.60
2022-07-28T10:55:41.889Z,96.50
2022-07-28T10:58:28.471Z,96.20
2022-07-28T11:00:59.589Z,96.30
2022-07-28T11:03:41.298Z,95.80
2022-07-28T11:06:29.149Z,96.40
2022-07-28T11:08:58.414Z,94.60
2022-07-28T11:11:43.927Z,94.80
2022-07-28T11:14:26.037Z,95.00
2022-07-28T11:17:10.780Z,94.90
2022-07-28T11:20:06.763Z,94.50
2022-07-28T11:22:33.276Z,93.00
2022-07-28T11:25:17.871Z,92.90
2022-07-28T11:27:52.170Z,93.90
2022-07-28T11:30:19.199Z,92.80
2022-07-28T11:32:54.907Z,93.40
2022-07-28T11:35:22.954Z,93.20
2022-07-28T11:38:01.996Z,92.90
2022-07-28T11:40:35.012Z,93.20
2022-07-28T11:43:35.266Z,93.00
2022-07-28T11:46:04.871Z,93.20
2022-07-28T11:48:38.246Z,92.90
2022-07-28T11:51:05.039Z,92.50
2022-07-28T11:53:51.124Z,92.10
2022-07-28T11:56:29.406Z,90.70
2022-07-28T11:58:57.118Z,91.10
2022-07-28T12:01:23.765Z,88.90
2022-07-28T12:03:55.302Z,88.10
2022-07-28T12:06:28.473Z,88.30
2022-07-28T12:09:07.775Z,85.10
2022-07-28T12:11:42.698Z,90.10
2022-07-28T12:14:10.007Z,89.10
2022-07-28T12:16:42.421Z,89.80
2022-07-28T12:19:11.010Z,87.00
2022-07-28T12:21:46.673Z,85.40
2022-07-28T12:24:45.785Z,83.70
2022-07-28T12:27:13.676Z,81.50
2022-07-28T12:29:41.712Z,83.20
2022-07-28T12:32:10.331Z,84.90
2022-07-28T12:34:39.697Z,88.20
2022-07-28T12:37:09.699Z,82.60
2022-07-28T12:39:41.827Z,80.80
2022-07-28T12:42:11.345Z,79.60
2022-07-28T12:44:40.270Z,82.60
2022-07-28T12:47:09.641Z,85.20
2022-07-28T12:49:37.845Z,81.90
2022-07-28T12:52:22.788Z,76.10
2022-07-28T12:54:53.596Z,78.80
2022-07-28T12:57:46.083Z,80.10
2022-07-28T13:00:20.020Z,81.30
2022-07-28T13:02:48.734Z,80.20
2022-07-28T13:05:54.506Z,80.10
2022-07-28T13:08:22.535Z,78.00
2022-07-28T13:10:52.349Z,77.80
2022-07-28T13:13:23.572Z,76.40
2022-07-28T13:16:13.039Z,74.80
2022-07-28T13:18:41.252Z,73.70
2022-07-28T13:21:08.208Z,74.80
2022-07-28T13:23:35.042Z,74.90
2022-07-28T13:26:01.901Z,74.40
2022-07-28T13:28:28.734Z,71.30
2022-07-28T13:30:55.526Z,75.00
2022-07-28T13:33:22.276Z,72.00
2022-07-28T13:35:50.209Z,71.60
2022-07-28T13:38:17.738Z,71.30
2022-07-28T13:40:45.132Z,70.20
2022-07-28T13:43:11.896Z,70.30
2022-07-28T13:45:38.762Z,67.00
2022-07-28T13:48:07.690Z,67.40
2022-07-28T13:50:34.421Z,67.60
2022-07-28T13:53:01.109Z,70.40
2022-07-28T13:55:28.282Z,71.40
2022-07-28T13:57:55.030Z,69.90
2022-07-28T14:00:23.727Z,68.00
2022-07-28T14:02:51.516Z,70.60
2022-07-28T14:05:18.520Z,65.50
2022-07-28T14:07:48.311Z,67.10
2022-07-28T14:10:15.859Z,68.60
2022-07-28T14:12:42.555Z,65.80
2022-07-28T14:15:12.663Z,67.20
2022-07-28T14:17:43.736Z,63.70
2022-07-28T14:20:15.297Z,66.10
2022-07-28T14:22:43.920Z,66.10
2022-07-28T14:25:11.506Z,65.50
2022-07-28T14:27:41.257Z,65.70
2022-07-28T14:30:08.715Z,65.60
2022-07-28T14:32:35.925Z,64.70
2022-07-28T14:35:02.753Z,63.80
2022-07-28T14:37:36.291Z,63.70
2022-07-28T14:40:14.769Z,65.10
2022-07-28T14:42:41.418Z,63.40
2022-07-28T14:45:08.604Z,62.10
2022-07-28T14:47:45.378Z,62.20
2022-07-28T14:50:13.163Z,62.60
2022-07-28T14:52:40.024Z,60.80
2022-07-28T14:55:07.128Z,59.60
2022-07-28T14:57:50.292Z,58.30
2022-07-28T15:00:20.021Z,55.00
2022-07-28T15:02:47.591Z,51.00
2022-07-28T15:05:14.480Z,50.00
2022-07-28T15:07:42.262Z,50.30
2022-07-28T15:10:10.266Z,50.00
2022-07-28T15:12:37.151Z,48.00
2022-07-28T15:15:05.131Z,48.00
2022-07-28T15:17:31.821Z,47.10
2022-07-28T15:19:58.855Z,47.90
2022-07-28T15:22:26.568Z,46.50
2022-07-28T15:24:53.634Z,45.60
2022-07-28T15:27:20.843Z,47.60
2022-07-28T15:29:47.631Z,47.10
2022-07-28T15:32:19.409Z,46.00
2022-07-28T15:34:52.306Z,44.80
2022-07-28T15:37:18.941Z,44.50
2022-07-28T15:39:45.580Z,45.10
2022-07-28T15:42:12.306Z,45.20
2022-07-28T15:44:38.944Z,45.80
2022-07-28T15:47:05.768Z,46.40
2022-07-28T15:49:32.530Z,44.60
2022-07-28T15:52:00.916Z,43.70
2022-07-28T15:54:28.138Z,44.40
2022-07-28T15:56:54.857Z,46.60
2022-07-28T15:59:21.542Z,49.20
2022-07-28T16:01:48.435Z,50.10
2022-07-28T16:04:15.762Z,49.50
2022-07-28T16:07:01.175Z,50.40
2022-07-28T16:09:45.854Z,49.60
2022-07-28T16:12:14.377Z,48.50
2022-07-28T16:14:41.899Z,48.80
2022-07-28T16:17:09.773Z,48.20
2022-07-28T16:19:48.346Z,48.10
2022-07-28T16:22:15.938Z,47.20
2022-07-28T16:24:42.653Z,48.30
2022-07-28T16:27:09.939Z,47.70
2022-07-28T16:29:38.009Z,47.50
2022-07-28T16:32:05.316Z,46.70
2022-07-28T16:34:31.974Z,46.00
2022-07-28T16:36:58.619Z,44.60
2022-07-28T16:39:25.296Z,44.60
2022-07-28T16:41:53.050Z,44.20
2022-07-28T16:44:20.305Z,44.00
2022-07-28T16:46:47.157Z,45.50
2022-07-28T16:49:16.281Z,48.30
2022-07-28T16:51:43.084Z,47.60
2022-07-28T16:54:09.843Z,48.00
2022-07-28T16:56:36.653Z,47.90
2022-07-28T16:59:03.962Z,49.60
2022-07-28T17:01:30.821Z,50.50
2022-07-28T17:03:57.564Z,52.20
2022-07-28T17:06:24.743Z,52.00
2022-07-28T17:08:51.457Z,51.80
2022-07-28T17:11:18.223Z,51.90
2022-07-28T17:13:45.511Z,52.20
2022-07-28T17:16:13.143Z,52.80
2022-07-28T17:18:40.186Z,52.60
2022-07-28T17:21:06.898Z,52.00
2022-07-28T17:23:34.664Z,50.00
2022-07-28T17:28:52.954Z,49.90
2022-07-28T17:31:19.688Z,52.60
2022-07-28T17:33:46.477Z,52.80
2022-07-28T17:36:13.713Z,53.90
2022-07-28T17:38:40.488Z,54.90
2022-07-28T17:41:09.076Z,55.10
2022-07-28T17:43:36.498Z,55.00
2022-07-28T17:46:08.665Z,56.10
2022-07-28T17:48:38.308Z,54.70
2022-07-28T17:51:05.302Z,54.90
2022-07-28T17:53:33.498Z,54.50
2022-07-28T17:56:05.984Z,54.30
2022-07-28T17:58:35.251Z,54.20
2022-07-28T18:01:10.695Z,53.50
2022-07-28T18:03:58.164Z,53.00
2022-07-28T18:06:29.389Z,53.50
2022-07-28T18:08:57.244Z,52.90
2022-07-28T18:11:24.436Z,52.90
2022-07-28T18:14:15.694Z,53.50
2022-07-28T18:16:37.750Z,53.50
2022-07-28T18:19:04.454Z,55.10
2022-07-28T18:21:31.064Z,55.50
2022-07-28T18:23:57.731Z,56.60
2022-07-28T18:26:24.422Z,56.90
2022-07-28T18:28:51.124Z,58.30
2022-07-28T18:31:17.916Z,59.10
2022-07-28T18:33:44.695Z,59.40
2022-07-28T18:36:11.408Z,59.90
2022-07-28T18:38:38.102Z,60.40
2022-07-28T18:41:04.743Z,61.30
2022-07-28T18:43:31.530Z,62.30
2022-07-28T18:45:58.310Z,63.10
2022-07-28T18:48:27.774Z,62.80
2022-07-28T18:50:54.462Z,63.50
2022-07-28T18:53:21.130Z,64.20
2022-07-28T18:55:47.796Z,64.80
2022-07-28T18:58:14.398Z,64.90
2022-07-28T19:00:41.044Z,65.90
2022-07-28T19:03:07.746Z,66.70
2022-07-28T19:05:36.414Z,66.90
2022-07-28T19:08:07.357Z,67.10
2022-07-28T19:10:34.011Z,67.90
2022-07-28T19:13:00.709Z,68.40
2022-07-28T19:15:27.457Z,69.00
2022-07-28T19:18:09.879Z,68.90
2022-07-28T19:20:43.821Z,69.20
2022-07-28T19:23:10.377Z,70.30
2022-07-28T19:25:38.779Z,70.80
2022-07-28T19:28:06.052Z,71.00
2022-07-28T19:30:33.088Z,71.20
2022-07-28T19:33:00.228Z,71.90
2022-07-28T19:35:26.984Z,72.50
2022-07-28T19:37:55.321Z,72.20
2022-07-28T19:40:22.243Z,72.60
2022-07-28T19:42:48.924Z,72.70
2022-07-28T19:45:15.655Z,73.10
2022-07-28T19:47:42.611Z,73.50
2022-07-28T19:50:09.305Z,73.60
2022-07-28T19:52:35.979Z,73.80
2022-07-28T19:55:05.278Z,74.00
2022-07-28T19:57:32.963Z,74.50
2022-07-28T20:00:01.834Z,74.60
2022-07-28T20:02:29.445Z,74.90
2022-07-28T20:04:56.126Z,75.50
2022-07-28T20:07:23.839Z,76.00
2022-07-28T20:09:50.499Z,76.20
2022-07-28T20:12:18.185Z,76.90
2022-07-28T20:14:44.876Z,76.60
2022-07-28T20:17:24.395Z,77.70
2022-07-28T20:19:58.492Z,77.70
2022-07-28T20:22:25.252Z,77.90
2022-07-28T20:24:51.940Z,77.60
2022-07-28T20:27:18.724Z,78.00
2022-07-28T20:29:45.572Z,78.00
2022-07-28T20:32:12.262Z,78.30
2022-07-28T20:34:38.910Z,79.10
2022-07-28T20:37:06.585Z,79.60
2022-07-28T20:39:53.182Z,79.30
2022-07-28T20:42:19.978Z,80.00
2022-07-28T20:44:46.675Z,80.30
2022-07-28T20:47:13.351Z,81.40
2022-07-28T20:49:39.978Z,81.20
2022-07-28T20:52:06.770Z,81.80
2022-07-28T20:54:33.417Z,81.40
2022-07-28T20:57:00.242Z,81.90
2022-07-28T20:59:27.897Z,81.90
2022-07-28T21:01:55.092Z,82.70
2022-07-28T21:04:24.461Z,82.30
2022-07-28T21:06:52.784Z,82.40
2022-07-28T21:09:22.082Z,83.70
2022-07-28T21:11:48.837Z,83.60
2022-07-28T21:14:15.827Z,83.60
2022-07-28T21:16:43.195Z,83.60
2022-07-28T21:19:09.910Z,84.30
2022-07-28T21:21:36.561Z,84.10
2022-07-28T21:24:03.513Z,84.30
2022-07-28T21:26:30.269Z,85.10
2022-07-28T21:29:12.692Z,84.70
2022-07-28T21:32:03.815Z,85.30
2022-07-28T21:34:28.330Z,85.80
2022-07-28T21:36:54.955Z,86.70
2022-07-28T21:39:21.637Z,86.30
2022-07-28T21:41:48.258Z,86.10
2022-07-28T21:44:15.245Z,86.10
2022-07-28T21:46:45.544Z,86.10
2022-07-28T21:49:12.369Z,86.10
2022-07-28T21:51:39.157Z,86.10
2022-07-28T21:54:06.159Z,86.10
2022-07-28T21:56:34.451Z,85.70
2022-07-28T21:59:02.519Z,86.30
2022-07-28T22:01:29.673Z,86.10
2022-07-28T22:03:56.905Z,86.80
2022-07-28T22:06:23.983Z,86.70
2022-07-28T22:08:53.469Z,87.40
2022-07-28T22:11:21.791Z,88.90
2022-07-28T22:13:48.588Z,88.30
2022-07-28T22:16:15.417Z,89.40
2022-07-28T22:18:42.123Z,89.40
2022-07-28T22:21:08.765Z,90.00
2022-07-28T22:23:35.557Z,89.70
2022-07-28T22:26:02.923Z,90.00
2022-07-28T22:28:30.623Z,89.90
2022-07-28T22:30:59.052Z,90.40
2022-07-28T22:33:37.490Z,90.70
2022-07-28T22:36:05.250Z,90.10
2022-07-28T22:38:32.027Z,90.10
2022-07-28T22:40:58.683Z,90.10
2022-07-28T22:43:25.364Z,90.40
2022-07-28T22:45:52.055Z,90.30
2022-07-28T22:48:18.929Z,90.60
2022-07-28T22:50:45.589Z,90.70
2022-07-28T22:53:12.195Z,91.10
2022-07-28T22:55:40.307Z,90.70
2022-07-28T22:58:06.913Z,91.00
2022-07-28T23:00:36.170Z,91.40
2022-07-28T23:03:04.350Z,91.10
2022-07-28T23:05:31.191Z,91.30
2022-07-28T23:07:58.877Z,91.40
2022-07-28T23:10:26.417Z,91.50
2022-07-28T23:12:57.231Z,91.80
2022-07-28T23:15:39.694Z,91.70
2022-07-28T23:18:07.815Z,91.90
2022-07-28T23:20:34.637Z,91.90
2022-07-28T23:23:01.632Z,91.70
2022-07-28T23:25:28.708Z,91.50
2022-07-28T23:27:55.359Z,91.60
2022-07-28T23:30:22.052Z,91.90
2022-07-28T23:32:52.422Z,91.80
2022-07-28T23:35:19.338Z,91.80
2022-07-28T23:37:45.987Z,92.30
2022-07-28T23:40:13.250Z,92.50
2022-07-28T23:42:39.933Z,92.40
2022-07-28T23:45:07.322Z,92.70
2022-07-28T23:47:34.406Z,92.30
2022-07-28T23:50:02.094Z,92.40
2022-07-28T23:52:29.051Z,92.60
2022-07-28T23:54:55.869Z,92.50
2022-07-28T23:57:22.613Z,92.90
2022-07-28T23:59:49.274Z,92.60
